sensor_id;sensor_type;location;lat;lon;timestamp;pressure;altitude;pressure_sealevel;temperature;humidity
52693;BME280;68218;51.012;-1.648;2023-07-24T00:02:23;99454.38;;;15.01;98.49
52693;BME280;68218;51.012;-1.648;2023-07-24T00:04:48;99450.84;;;14.91;97.85
52693;BME280;68218;51.012;-1.648;2023-07-24T00:07:14;99445.03;;;14.84;97.96
52693;BME280;68218;51.012;-1.648;2023-07-24T00:09:39;99448.19;;;14.77;97.71
52693;BME280;68218;51.012;-1.648;2023-07-24T00:12:05;99448.50;;;14.76;98.07
52693;BME280;68218;51.012;-1.648;2023-07-24T00:14:30;99455.03;;;14.75;97.87
52693;BME280;68218;51.012;-1.648;2023-07-24T00:16:56;99447.59;;;14.81;98.78
52693;BME280;68218;51.012;-1.648;2023-07-24T00:19:21;99444.75;;;14.86;99.32
52693;BME280;68218;51.012;-1.648;2023-07-24T00:21:47;99440.59;;;14.88;100.00
52693;BME280;68218;51.012;-1.648;2023-07-24T00:24:12;99444.97;;;14.98;99.73
52693;BME280;68218;51.012;-1.648;2023-07-24T00:26:37;99450.25;;;15.03;99.38
52693;BME280;68218;51.012;-1.648;2023-07-24T00:29:03;99446.41;;;15.04;99.18
52693;BME280;68218;51.012;-1.648;2023-07-24T00:31:28;99441.13;;;14.99;99.60
52693;BME280;68218;51.012;-1.648;2023-07-24T00:33:53;99444.81;;;15.03;99.27
52693;BME280;68218;51.012;-1.648;2023-07-24T00:36:19;99440.50;;;15.02;99.29
52693;BME280;68218;51.012;-1.648;2023-07-24T00:38:44;99436.69;;;15.03;99.75
52693;BME280;68218;51.012;-1.648;2023-07-24T00:41:10;99437.03;;;15.10;99.38
52693;BME280;68218;51.012;-1.648;2023-07-24T00:43:35;99434.47;;;15.14;99.89
52693;BME280;68218;51.012;-1.648;2023-07-24T00:46:02;99428.28;;;15.22;99.89
52693;BME280;68218;51.012;-1.648;2023-07-24T00:48:28;99426.69;;;15.21;99.46
52693;BME280;68218;51.012;-1.648;2023-07-24T00:50:54;99424.28;;;15.20;99.78
52693;BME280;68218;51.012;-1.648;2023-07-24T00:53:20;99418.66;;;15.16;98.66
52693;BME280;68218;51.012;-1.648;2023-07-24T00:55:46;99428.09;;;15.10;98.27
52693;BME280;68218;51.012;-1.648;2023-07-24T00:58:12;99419.03;;;14.92;98.79
52693;BME280;68218;51.012;-1.648;2023-07-24T01:00:38;99409.78;;;14.93;98.80
52693;BME280;68218;51.012;-1.648;2023-07-24T01:03:05;99411.03;;;14.87;98.20
52693;BME280;68218;51.012;-1.648;2023-07-24T01:05:30;99411.81;;;14.87;98.39
52693;BME280;68218;51.012;-1.648;2023-07-24T01:07:57;99413.09;;;14.81;98.67
52693;BME280;68218;51.012;-1.648;2023-07-24T01:10:23;99415.13;;;14.75;98.52
52693;BME280;68218;51.012;-1.648;2023-07-24T01:12:58;99408.72;;;14.71;99.02
52693;BME280;68218;51.012;-1.648;2023-07-24T01:15:48;99410.31;;;14.72;98.96
52693;BME280;68218;51.012;-1.648;2023-07-24T01:18:17;99414.13;;;14.71;100.00
52693;BME280;68218;51.012;-1.648;2023-07-24T01:20:51;99408.28;;;14.78;100.00
52693;BME280;68218;51.012;-1.648;2023-07-24T01:26:00;99410.41;;;14.90;100.00
52693;BME280;68218;51.012;-1.648;2023-07-24T01:28:28;99410.09;;;14.91;100.00
52693;BME280;68218;51.012;-1.648;2023-07-24T01:30:54;99403.88;;;14.91;100.00
52693;BME280;68218;51.012;-1.648;2023-07-24T01:33:20;99403.53;;;14.92;100.00
52693;BME280;68218;51.012;-1.648;2023-07-24T01:35:48;99404.22;;;14.98;100.00
52693;BME280;68218;51.012;-1.648;2023-07-24T01:38:16;99396.25;;;15.02;100.00
52693;BME280;68218;51.012;-1.648;2023-07-24T01:40:42;99392.53;;;14.97;100.00
52693;BME280;68218;51.012;-1.648;2023-07-24T01:43:08;99399.16;;;15.05;100.00
52693;BME280;68218;51.012;-1.648;2023-07-24T01:45:34;99391.78;;;15.06;100.00
52693;BME280;68218;51.012;-1.648;2023-07-24T01:48:01;99396.16;;;15.15;100.00
52693;BME280;68218;51.012;-1.648;2023-07-24T01:50:27;99391.19;;;15.17;100.00
52693;BME280;68218;51.012;-1.648;2023-07-24T01:52:52;99388.66;;;15.21;99.23
52693;BME280;68218;51.012;-1.648;2023-07-24T01:55:17;99384.53;;;15.24;99.37
52693;BME280;68218;51.012;-1.648;2023-07-24T01:57:43;99374.19;;;14.94;99.79
52693;BME280;68218;51.012;-1.648;2023-07-24T02:00:09;99383.47;;;15.02;99.56
52693;BME280;68218;51.012;-1.648;2023-07-24T02:02:34;99381.88;;;15.01;100.00
52693;BME280;68218;51.012;-1.648;2023-07-24T02:05:00;99383.59;;;14.97;100.00
52693;BME280;68218;51.012;-1.648;2023-07-24T02:07:25;99377.91;;;15.07;99.85
52693;BME280;68218;51.012;-1.648;2023-07-24T02:09:50;99377.97;;;15.25;99.74
52693;BME280;68218;51.012;-1.648;2023-07-24T02:12:16;99371.59;;;15.29;99.23
52693;BME280;68218;51.012;-1.648;2023-07-24T02:14:41;99377.34;;;15.36;99.01
52693;BME280;68218;51.012;-1.648;2023-07-24T02:17:07;99375.59;;;15.32;97.53
52693;BME280;68218;51.012;-1.648;2023-07-24T02:19:32;99365.88;;;14.91;99.97
52693;BME280;68218;51.012;-1.648;2023-07-24T02:21:57;99363.22;;;15.08;99.84
52693;BME280;68218;51.012;-1.648;2023-07-24T02:24:23;99358.28;;;15.10;100.00
52693;BME280;68218;51.012;-1.648;2023-07-24T02:26:48;99354.31;;;15.16;100.00
52693;BME280;68218;51.012;-1.648;2023-07-24T02:29:13;99357.84;;;15.26;100.00
52693;BME280;68218;51.012;-1.648;2023-07-24T02:31:39;99358.16;;;15.33;99.19
52693;BME280;68218;51.012;-1.648;2023-07-24T02:34:04;99356.72;;;15.27;99.37
52693;BME280;68218;51.012;-1.648;2023-07-24T02:36:30;99349.69;;;15.26;100.00
52693;BME280;68218;51.012;-1.648;2023-07-24T02:38:55;99352.41;;;15.26;99.89
52693;BME280;68218;51.012;-1.648;2023-07-24T02:41:20;99351.25;;;15.18;99.99
52693;BME280;68218;51.012;-1.648;2023-07-24T02:43:46;99361.31;;;15.17;100.00
52693;BME280;68218;51.012;-1.648;2023-07-24T02:46:12;99356.38;;;15.20;100.00
52693;BME280;68218;51.012;-1.648;2023-07-24T02:48:37;99355.59;;;15.28;100.00
52693;BME280;68218;51.012;-1.648;2023-07-24T02:51:03;99353.81;;;15.23;100.00
52693;BME280;68218;51.012;-1.648;2023-07-24T02:53:28;99357.34;;;15.24;100.00
52693;BME280;68218;51.012;-1.648;2023-07-24T02:55:54;99364.69;;;15.23;100.00
52693;BME280;68218;51.012;-1.648;2023-07-24T02:58:19;99354.94;;;15.13;100.00
52693;BME280;68218;51.012;-1.648;2023-07-24T03:00:44;99359.22;;;15.14;100.00
52693;BME280;68218;51.012;-1.648;2023-07-24T03:03:10;99355.75;;;15.23;100.00
52693;BME280;68218;51.012;-1.648;2023-07-24T03:05:36;99356.88;;;15.22;100.00
52693;BME280;68218;51.012;-1.648;2023-07-24T03:08:01;99358.47;;;15.23;100.00
52693;BME280;68218;51.012;-1.648;2023-07-24T03:10:26;99356.53;;;15.23;100.00
52693;BME280;68218;51.012;-1.648;2023-07-24T03:12:52;99352.41;;;15.26;100.00
52693;BME280;68218;51.012;-1.648;2023-07-24T03:15:18;99359.44;;;15.27;100.00
52693;BME280;68218;51.012;-1.648;2023-07-24T03:17:44;99353.19;;;15.26;100.00
52693;BME280;68218;51.012;-1.648;2023-07-24T03:20:17;99347.13;;;15.21;100.00
52693;BME280;68218;51.012;-1.648;2023-07-24T03:22:43;99350.47;;;15.17;100.00
52693;BME280;68218;51.012;-1.648;2023-07-24T03:25:08;99350.28;;;15.14;100.00
52693;BME280;68218;51.012;-1.648;2023-07-24T03:27:34;99353.97;;;15.18;100.00
52693;BME280;68218;51.012;-1.648;2023-07-24T03:29:59;99349.03;;;15.20;100.00
52693;BME280;68218;51.012;-1.648;2023-07-24T03:32:25;99347.75;;;15.17;100.00
52693;BME280;68218;51.012;-1.648;2023-07-24T03:34:50;99349.84;;;15.21;100.00
52693;BME280;68218;51.012;-1.648;2023-07-24T03:37:16;99341.69;;;15.21;100.00
52693;BME280;68218;51.012;-1.648;2023-07-24T03:39:41;99341.53;;;15.17;100.00
52693;BME280;68218;51.012;-1.648;2023-07-24T03:42:09;99348.88;;;15.16;100.00
52693;BME280;68218;51.012;-1.648;2023-07-24T03:44:35;99346.00;;;15.22;100.00
52693;BME280;68218;51.012;-1.648;2023-07-24T03:47:00;99353.19;;;15.17;100.00
52693;BME280;68218;51.012;-1.648;2023-07-24T03:49:25;99350.59;;;15.12;100.00
52693;BME280;68218;51.012;-1.648;2023-07-24T03:51:51;99348.06;;;15.16;100.00
52693;BME280;68218;51.012;-1.648;2023-07-24T03:54:16;99347.25;;;15.07;100.00
52693;BME280;68218;51.012;-1.648;2023-07-24T03:56:42;99345.00;;;15.09;100.00
52693;BME280;68218;51.012;-1.648;2023-07-24T03:59:07;99347.88;;;15.12;100.00
52693;BME280;68218;51.012;-1.648;2023-07-24T04:01:32;99357.47;;;15.10;100.00
52693;BME280;68218;51.012;-1.648;2023-07-24T04:03:58;99360.97;;;15.10;100.00
52693;BME280;68218;51.012;-1.648;2023-07-24T04:06:24;99359.88;;;15.11;100.00
52693;BME280;68218;51.012;-1.648;2023-07-24T04:08:49;99348.03;;;15.07;100.00
52693;BME280;68218;51.012;-1.648;2023-07-24T04:11:15;99365.13;;;15.08;100.00
52693;BME280;68218;51.012;-1.648;2023-07-24T04:13:40;99362.88;;;15.01;100.00
52693;BME280;68218;51.012;-1.648;2023-07-24T04:16:05;99358.72;;;15.04;100.00
52693;BME280;68218;51.012;-1.648;2023-07-24T04:18:31;99364.78;;;15.01;100.00
52693;BME280;68218;51.012;-1.648;2023-07-24T04:20:56;99369.59;;;15.04;100.00
52693;BME280;68218;51.012;-1.648;2023-07-24T04:23:22;99372.47;;;15.07;100.00
52693;BME280;68218;51.012;-1.648;2023-07-24T04:25:50;99355.50;;;14.93;100.00
52693;BME280;68218;51.012;-1.648;2023-07-24T04:28:15;99373.78;;;15.10;100.00
52693;BME280;68218;51.012;-1.648;2023-07-24T04:30:41;99370.09;;;15.14;100.00
52693;BME280;68218;51.012;-1.648;2023-07-24T04:33:06;99365.16;;;15.16;100.00
52693;BME280;68218;51.012;-1.648;2023-07-24T04:35:32;99370.75;;;15.11;100.00
52693;BME280;68218;51.012;-1.648;2023-07-24T04:37:57;99368.03;;;15.11;100.00
52693;BME280;68218;51.012;-1.648;2023-07-24T04:40:23;99369.28;;;15.05;100.00
52693;BME280;68218;51.012;-1.648;2023-07-24T04:42:49;99371.50;;;15.03;100.00
52693;BME280;68218;51.012;-1.648;2023-07-24T04:45:14;99376.81;;;15.08;100.00
52693;BME280;68218;51.012;-1.648;2023-07-24T04:47:40;99369.31;;;15.14;100.00
52693;BME280;68218;51.012;-1.648;2023-07-24T04:50:06;99372.19;;;15.17;100.00
52693;BME280;68218;51.012;-1.648;2023-07-24T04:52:31;99372.31;;;15.12;100.00
52693;BME280;68218;51.012;-1.648;2023-07-24T04:54:57;99379.38;;;15.13;100.00
52693;BME280;68218;51.012;-1.648;2023-07-24T04:57:22;99376.50;;;15.10;100.00
52693;BME280;68218;51.012;-1.648;2023-07-24T04:59:47;99381.94;;;15.19;100.00
52693;BME280;68218;51.012;-1.648;2023-07-24T05:02:13;99377.16;;;15.24;100.00
52693;BME280;68218;51.012;-1.648;2023-07-24T05:04:38;99381.31;;;15.22;100.00
52693;BME280;68218;51.012;-1.648;2023-07-24T05:07:04;99386.63;;;15.27;100.00
52693;BME280;68218;51.012;-1.648;2023-07-24T05:09:29;99383.91;;;15.27;100.00
52693;BME280;68218;51.012;-1.648;2023-07-24T05:11:55;99381.81;;;15.24;100.00
52693;BME280;68218;51.012;-1.648;2023-07-24T05:14:20;99383.22;;;15.21;100.00
52693;BME280;68218;51.012;-1.648;2023-07-24T05:16:45;99383.91;;;15.27;100.00
52693;BME280;68218;51.012;-1.648;2023-07-24T05:19:11;99373.34;;;15.25;100.00
52693;BME280;68218;51.012;-1.648;2023-07-24T05:21:36;99379.56;;;15.26;100.00
52693;BME280;68218;51.012;-1.648;2023-07-24T05:24:02;99380.19;;;15.23;100.00
52693;BME280;68218;51.012;-1.648;2023-07-24T05:26:27;99388.66;;;15.21;100.00
52693;BME280;68218;51.012;-1.648;2023-07-24T05:28:53;99386.91;;;15.16;100.00
52693;BME280;68218;51.012;-1.648;2023-07-24T05:31:18;99384.66;;;15.19;100.00
52693;BME280;68218;51.012;-1.648;2023-07-24T05:33:44;99386.41;;;15.23;100.00
52693;BME280;68218;51.012;-1.648;2023-07-24T05:36:09;99379.72;;;15.21;100.00
52693;BME280;68218;51.012;-1.648;2023-07-24T05:38:35;99386.56;;;15.18;100.00
52693;BME280;68218;51.012;-1.648;2023-07-24T05:41:03;99394.06;;;15.12;100.00
52693;BME280;68218;51.012;-1.648;2023-07-24T05:43:29;99390.72;;;15.15;100.00
52693;BME280;68218;51.012;-1.648;2023-07-24T05:45:56;99395.00;;;15.08;100.00
52693;BME280;68218;51.012;-1.648;2023-07-24T05:48:22;99388.94;;;15.11;100.00
52693;BME280;68218;51.012;-1.648;2023-07-24T05:50:47;99387.97;;;15.07;100.00
52693;BME280;68218;51.012;-1.648;2023-07-24T05:53:14;99381.75;;;15.06;100.00
52693;BME280;68218;51.012;-1.648;2023-07-24T05:55:39;99386.69;;;15.13;100.00
52693;BME280;68218;51.012;-1.648;2023-07-24T05:58:05;99384.66;;;15.19;100.00
52693;BME280;68218;51.012;-1.648;2023-07-24T06:00:30;99385.63;;;15.23;100.00
52693;BME280;68218;51.012;-1.648;2023-07-24T06:02:56;99384.22;;;15.34;100.00
52693;BME280;68218;51.012;-1.648;2023-07-24T06:05:21;99391.94;;;15.41;100.00
52693;BME280;68218;51.012;-1.648;2023-07-24T06:07:47;99393.69;;;15.45;100.00
52693;BME280;68218;51.012;-1.648;2023-07-24T06:10:13;99400.56;;;15.43;100.00
52693;BME280;68218;51.012;-1.648;2023-07-24T06:12:38;99394.13;;;15.39;100.00
52693;BME280;68218;51.012;-1.648;2023-07-24T06:15:04;99395.78;;;15.48;100.00
52693;BME280;68218;51.012;-1.648;2023-07-24T06:17:30;99403.78;;;15.53;100.00
52693;BME280;68218;51.012;-1.648;2023-07-24T06:19:56;99399.63;;;15.47;100.00
52693;BME280;68218;51.012;-1.648;2023-07-24T06:22:22;99400.88;;;15.50;100.00
52693;BME280;68218;51.012;-1.648;2023-07-24T06:24:48;99390.47;;;15.43;100.00
52693;BME280;68218;51.012;-1.648;2023-07-24T06:27:13;99398.63;;;15.43;100.00
52693;BME280;68218;51.012;-1.648;2023-07-24T06:29:38;99390.66;;;15.47;100.00
52693;BME280;68218;51.012;-1.648;2023-07-24T06:32:04;99400.75;;;15.55;100.00
52693;BME280;68218;51.012;-1.648;2023-07-24T06:34:30;99394.53;;;15.63;100.00
52693;BME280;68218;51.012;-1.648;2023-07-24T06:36:55;99395.81;;;15.74;100.00
52693;BME280;68218;51.012;-1.648;2023-07-24T06:39:21;99374.72;;;15.63;100.00
52693;BME280;68218;51.012;-1.648;2023-07-24T06:41:46;99396.81;;;15.79;100.00
52693;BME280;68218;51.012;-1.648;2023-07-24T06:44:12;99403.53;;;15.81;100.00
52693;BME280;68218;51.012;-1.648;2023-07-24T06:46:37;99407.53;;;15.75;100.00
52693;BME280;68218;51.012;-1.648;2023-07-24T06:49:03;99404.13;;;15.69;100.00
52693;BME280;68218;51.012;-1.648;2023-07-24T06:51:28;99403.06;;;15.79;100.00
52693;BME280;68218;51.012;-1.648;2023-07-24T06:53:54;99407.72;;;15.96;100.00
52693;BME280;68218;51.012;-1.648;2023-07-24T06:56:19;99408.03;;;16.03;100.00
52693;BME280;68218;51.012;-1.648;2023-07-24T06:58:45;99406.59;;;16.32;100.00
52693;BME280;68218;51.012;-1.648;2023-07-24T07:01:10;99416.84;;;16.35;100.00
52693;BME280;68218;51.012;-1.648;2023-07-24T07:03:35;99425.78;;;16.53;100.00
52693;BME280;68218;51.012;-1.648;2023-07-24T07:06:01;99422.53;;;16.69;100.00
52693;BME280;68218;51.012;-1.648;2023-07-24T07:08:28;99419.34;;;16.84;100.00
52693;BME280;68218;51.012;-1.648;2023-07-24T07:10:58;99421.75;;;16.85;100.00
52693;BME280;68218;51.012;-1.648;2023-07-24T07:13:23;99426.84;;;16.78;100.00
52693;BME280;68218;51.012;-1.648;2023-07-24T07:15:49;99425.94;;;16.48;99.50
52693;BME280;68218;51.012;-1.648;2023-07-24T07:18:14;99430.09;;;16.54;100.00
52693;BME280;68218;51.012;-1.648;2023-07-24T07:20:48;99426.06;;;16.60;100.00
52693;BME280;68218;51.012;-1.648;2023-07-24T07:23:14;99424.47;;;16.68;100.00
52693;BME280;68218;51.012;-1.648;2023-07-24T07:25:40;99430.72;;;16.60;100.00
52693;BME280;68218;51.012;-1.648;2023-07-24T07:28:05;99433.75;;;16.76;100.00
52693;BME280;68218;51.012;-1.648;2023-07-24T07:30:31;99427.81;;;16.91;100.00
52693;BME280;68218;51.012;-1.648;2023-07-24T07:32:56;99429.06;;;17.02;100.00
52693;BME280;68218;51.012;-1.648;2023-07-24T07:35:22;99436.94;;;16.95;100.00
52693;BME280;68218;51.012;-1.648;2023-07-24T07:37:47;99428.72;;;17.13;100.00
52693;BME280;68218;51.012;-1.648;2023-07-24T07:40:13;99428.25;;;17.11;96.29
52693;BME280;68218;51.012;-1.648;2023-07-24T07:42:38;99431.78;;;17.02;98.87
52693;BME280;68218;51.012;-1.648;2023-07-24T07:45:04;99427.09;;;17.12;98.54
52693;BME280;68218;51.012;-1.648;2023-07-24T07:47:29;99432.97;;;17.31;98.40
52693;BME280;68218;51.012;-1.648;2023-07-24T07:49:55;99432.78;;;17.36;95.67
52693;BME280;68218;51.012;-1.648;2023-07-24T07:52:20;99426.72;;;17.22;95.50
52693;BME280;68218;51.012;-1.648;2023-07-24T07:54:49;99419.38;;;17.22;97.03
52693;BME280;68218;51.012;-1.648;2023-07-24T07:57:15;99427.59;;;17.44;94.86
52693;BME280;68218;51.012;-1.648;2023-07-24T07:59:41;99429.47;;;17.82;93.25
52693;BME280;68218;51.012;-1.648;2023-07-24T08:02:07;99425.25;;;18.14;93.75
52693;BME280;68218;51.012;-1.648;2023-07-24T08:04:32;99435.66;;;18.21;90.13
52693;BME280;68218;51.012;-1.648;2023-07-24T08:06:58;99433.00;;;18.12;91.03
52693;BME280;68218;51.012;-1.648;2023-07-24T08:09:23;99432.47;;;18.73;93.77
52693;BME280;68218;51.012;-1.648;2023-07-24T08:11:49;99424.56;;;19.17;90.80
52693;BME280;68218;51.012;-1.648;2023-07-24T08:14:16;99422.09;;;19.49;89.08
52693;BME280;68218;51.012;-1.648;2023-07-24T08:16:41;99430.94;;;18.97;87.21
52693;BME280;68218;51.012;-1.648;2023-07-24T08:19:07;99437.59;;;18.53;86.55
52693;BME280;68218;51.012;-1.648;2023-07-24T08:21:32;99430.16;;;19.08;86.91
52693;BME280;68218;51.012;-1.648;2023-07-24T08:23:58;99438.94;;;18.81;83.78
52693;BME280;68218;51.012;-1.648;2023-07-24T08:26:25;99442.00;;;18.67;84.97
52693;BME280;68218;51.012;-1.648;2023-07-24T08:28:52;99429.03;;;18.43;83.37
52693;BME280;68218;51.012;-1.648;2023-07-24T08:31:17;99432.19;;;18.32;88.49
52693;BME280;68218;51.012;-1.648;2023-07-24T08:33:42;99424.94;;;18.15;89.70
52693;BME280;68218;51.012;-1.648;2023-07-24T08:36:08;99436.25;;;18.05;85.39
52693;BME280;68218;51.012;-1.648;2023-07-24T08:38:35;99434.91;;;18.32;88.67
52693;BME280;68218;51.012;-1.648;2023-07-24T08:41:11;99433.75;;;18.55;89.94
52693;BME280;68218;51.012;-1.648;2023-07-24T08:43:39;99435.56;;;18.29;86.46
52693;BME280;68218;51.012;-1.648;2023-07-24T08:46:06;99445.38;;;18.30;90.78
52693;BME280;68218;51.012;-1.648;2023-07-24T08:51:04;99430.84;;;18.18;87.44
52693;BME280;68218;51.012;-1.648;2023-07-24T08:53:32;99444.63;;;18.00;87.17
52693;BME280;68218;51.012;-1.648;2023-07-24T08:55:59;99446.44;;;17.96;86.11
52693;BME280;68218;51.012;-1.648;2023-07-24T08:58:25;99458.81;;;18.14;90.52
52693;BME280;68218;51.012;-1.648;2023-07-24T09:00:50;99454.75;;;18.21;89.29
52693;BME280;68218;51.012;-1.648;2023-07-24T09:03:18;99438.31;;;18.29;85.72
52693;BME280;68218;51.012;-1.648;2023-07-24T09:05:44;99451.50;;;18.27;86.22
52693;BME280;68218;51.012;-1.648;2023-07-24T09:08:10;99447.91;;;18.36;82.61
52693;BME280;68218;51.012;-1.648;2023-07-24T09:10:35;99447.38;;;18.42;84.86
52693;BME280;68218;51.012;-1.648;2023-07-24T09:13:01;99456.28;;;18.30;86.00
52693;BME280;68218;51.012;-1.648;2023-07-24T09:15:49;99449.47;;;18.37;82.95
52693;BME280;68218;51.012;-1.648;2023-07-24T09:18:14;99450.63;;;17.85;76.64
52693;BME280;68218;51.012;-1.648;2023-07-24T09:20:42;99462.28;;;18.03;80.15
52693;BME280;68218;51.012;-1.648;2023-07-24T09:23:09;99460.53;;;18.19;82.04
52693;BME280;68218;51.012;-1.648;2023-07-24T09:25:36;99460.47;;;18.07;76.77
52693;BME280;68218;51.012;-1.648;2023-07-24T09:28:09;99470.09;;;18.04;77.06
52693;BME280;68218;51.012;-1.648;2023-07-24T09:30:35;99464.75;;;18.38;82.10
52693;BME280;68218;51.012;-1.648;2023-07-24T09:33:00;99459.44;;;17.90;74.85
52693;BME280;68218;51.012;-1.648;2023-07-24T09:35:26;99463.63;;;18.39;76.10
52693;BME280;68218;51.012;-1.648;2023-07-24T09:38:10;99475.66;;;18.17;75.84
52693;BME280;68218;51.012;-1.648;2023-07-24T09:40:40;99472.56;;;17.97;78.16
52693;BME280;68218;51.012;-1.648;2023-07-24T09:45:41;99496.69;;;17.00;81.85
52693;BME280;68218;51.012;-1.648;2023-07-24T09:48:08;99499.59;;;16.69;82.51
52693;BME280;68218;51.012;-1.648;2023-07-24T09:50:37;99508.06;;;16.50;82.31
52693;BME280;68218;51.012;-1.648;2023-07-24T09:53:03;99506.97;;;16.42;82.60
52693;BME280;68218;51.012;-1.648;2023-07-24T09:55:35;99501.50;;;16.34;83.52
52693;BME280;68218;51.012;-1.648;2023-07-24T09:58:03;99508.88;;;16.42;84.42
52693;BME280;68218;51.012;-1.648;2023-07-24T10:00:31;99509.97;;;16.76;83.18
52693;BME280;68218;51.012;-1.648;2023-07-24T10:02:56;99513.19;;;16.43;83.76
52693;BME280;68218;51.012;-1.648;2023-07-24T10:05:22;99522.03;;;16.48;83.14
52693;BME280;68218;51.012;-1.648;2023-07-24T10:07:48;99518.34;;;16.88;83.09
52693;BME280;68218;51.012;-1.648;2023-07-24T10:10:15;99514.78;;;17.14;82.03
52693;BME280;68218;51.012;-1.648;2023-07-24T10:12:41;99532.66;;;17.32;81.92
52693;BME280;68218;51.012;-1.648;2023-07-24T10:15:07;99528.03;;;17.33;80.39
52693;BME280;68218;51.012;-1.648;2023-07-24T10:17:37;99526.19;;;17.07;81.87
52693;BME280;68218;51.012;-1.648;2023-07-24T10:20:07;99533.34;;;17.12;82.40
52693;BME280;68218;51.012;-1.648;2023-07-24T10:22:33;99545.38;;;17.19;81.19
52693;BME280;68218;51.012;-1.648;2023-07-24T10:24:59;99542.03;;;16.79;81.60
52693;BME280;68218;51.012;-1.648;2023-07-24T10:27:25;99532.75;;;16.89;79.44
52693;BME280;68218;51.012;-1.648;2023-07-24T10:30:00;99541.69;;;17.07;78.97
52693;BME280;68218;51.012;-1.648;2023-07-24T10:32:28;99542.16;;;17.26;77.48
52693;BME280;68218;51.012;-1.648;2023-07-24T10:35:06;99542.66;;;17.11;77.51
52693;BME280;68218;51.012;-1.648;2023-07-24T10:37:35;99551.00;;;17.06;77.28
52693;BME280;68218;51.012;-1.648;2023-07-24T10:40:02;99552.59;;;17.24;78.07
52693;BME280;68218;51.012;-1.648;2023-07-24T10:42:28;99556.63;;;17.09;77.99
52693;BME280;68218;51.012;-1.648;2023-07-24T10:45:08;99564.97;;;16.95;77.98
52693;BME280;68218;51.012;-1.648;2023-07-24T10:47:34;99563.97;;;17.26;75.92
52693;BME280;68218;51.012;-1.648;2023-07-24T10:50:00;99562.28;;;17.60;75.32
52693;BME280;68218;51.012;-1.648;2023-07-24T10:52:31;99548.91;;;18.36;75.68
52693;BME280;68218;51.012;-1.648;2023-07-24T10:55:04;99561.34;;;18.45;72.86
52693;BME280;68218;51.012;-1.648;2023-07-24T10:57:29;99584.44;;;17.97;71.40
52693;BME280;68218;51.012;-1.648;2023-07-24T10:59:55;99575.38;;;18.65;71.22
52693;BME280;68218;51.012;-1.648;2023-07-24T11:02:21;99582.84;;;17.96;73.43
52693;BME280;68218;51.012;-1.648;2023-07-24T11:04:46;99582.47;;;18.06;72.95
52693;BME280;68218;51.012;-1.648;2023-07-24T11:07:12;99588.50;;;18.21;71.43
52693;BME280;68218;51.012;-1.648;2023-07-24T11:09:39;99593.22;;;17.55;73.49
52693;BME280;68218;51.012;-1.648;2023-07-24T11:12:13;99593.44;;;17.33;75.13
52693;BME280;68218;51.012;-1.648;2023-07-24T11:14:49;99602.53;;;17.46;73.82
52693;BME280;68218;51.012;-1.648;2023-07-24T11:17:15;99601.66;;;17.80;75.03
52693;BME280;68218;51.012;-1.648;2023-07-24T11:19:40;99606.00;;;17.72;72.90
52693;BME280;68218;51.012;-1.648;2023-07-24T11:22:07;99613.41;;;17.72;73.73
52693;BME280;68218;51.012;-1.648;2023-07-24T11:24:32;99621.59;;;17.72;71.88
52693;BME280;68218;51.012;-1.648;2023-07-24T11:26:58;99632.16;;;17.91;72.19
52693;BME280;68218;51.012;-1.648;2023-07-24T11:29:23;99630.00;;;17.32;73.28
52693;BME280;68218;51.012;-1.648;2023-07-24T11:31:55;99624.19;;;17.51;73.33
52693;BME280;68218;51.012;-1.648;2023-07-24T11:34:22;99623.59;;;17.28;75.19
52693;BME280;68218;51.012;-1.648;2023-07-24T11:36:48;99631.00;;;18.30;72.13
52693;BME280;68218;51.012;-1.648;2023-07-24T11:39:14;99643.84;;;18.30;71.78
52693;BME280;68218;51.012;-1.648;2023-07-24T11:41:46;99639.06;;;17.71;72.04
52693;BME280;68218;51.012;-1.648;2023-07-24T11:44:12;99648.91;;;17.37;71.76
52693;BME280;68218;51.012;-1.648;2023-07-24T11:46:42;99644.09;;;17.25;74.57
52693;BME280;68218;51.012;-1.648;2023-07-24T11:49:08;99646.31;;;17.67;71.98
52693;BME280;68218;51.012;-1.648;2023-07-24T11:51:36;99645.22;;;17.41;71.67
52693;BME280;68218;51.012;-1.648;2023-07-24T11:54:10;99646.22;;;17.19;72.17
52693;BME280;68218;51.012;-1.648;2023-07-24T11:56:37;99646.66;;;17.39;72.07
52693;BME280;68218;51.012;-1.648;2023-07-24T11:59:13;99654.38;;;17.37;71.54
52693;BME280;68218;51.012;-1.648;2023-07-24T12:01:38;99647.47;;;17.48;71.88
52693;BME280;68218;51.012;-1.648;2023-07-24T12:04:04;99650.56;;;17.94;71.38
52693;BME280;68218;51.012;-1.648;2023-07-24T12:06:32;99652.66;;;17.97;67.52
52693;BME280;68218;51.012;-1.648;2023-07-24T12:09:04;99647.28;;;18.09;67.29
52693;BME280;68218;51.012;-1.648;2023-07-24T12:11:31;99642.63;;;18.19;70.20
52693;BME280;68218;51.012;-1.648;2023-07-24T12:13:57;99652.69;;;17.79;67.17
52693;BME280;68218;51.012;-1.648;2023-07-24T12:16:22;99658.81;;;17.68;67.31
52693;BME280;68218;51.012;-1.648;2023-07-24T12:18:47;99659.25;;;17.96;68.51
52693;BME280;68218;51.012;-1.648;2023-07-24T12:21:13;99651.41;;;17.77;69.94
52693;BME280;68218;51.012;-1.648;2023-07-24T12:23:38;99672.13;;;17.69;68.75
52693;BME280;68218;51.012;-1.648;2023-07-24T12:26:04;99664.97;;;17.30;70.58
52693;BME280;68218;51.012;-1.648;2023-07-24T12:28:29;99668.16;;;17.14;71.42
52693;BME280;68218;51.012;-1.648;2023-07-24T12:30:55;99670.09;;;17.22;70.84
52693;BME280;68218;51.012;-1.648;2023-07-24T12:33:20;99663.50;;;17.32;71.37
52693;BME280;68218;51.012;-1.648;2023-07-24T12:35:49;99662.47;;;17.81;69.20
52693;BME280;68218;51.012;-1.648;2023-07-24T12:38:15;99657.03;;;17.89;66.90
52693;BME280;68218;51.012;-1.648;2023-07-24T12:40:40;99655.63;;;18.22;71.33
52693;BME280;68218;51.012;-1.648;2023-07-24T12:43:05;99658.03;;;18.23;68.52
52693;BME280;68218;51.012;-1.648;2023-07-24T12:45:31;99664.28;;;18.24;66.16
52693;BME280;68218;51.012;-1.648;2023-07-24T12:47:56;99660.47;;;18.07;65.72
52693;BME280;68218;51.012;-1.648;2023-07-24T12:50:22;99658.16;;;18.27;67.42